createdAt,value
2022-08-22T00:01:29.629Z,16.50
2022-08-22T00:02:57.073Z,18.50
2022-08-22T00:03:07.041Z,16.60
2022-08-22T00:04:22.222Z,16.50
2022-08-22T00:07:19.313Z,16.40
2022-08-22T00:10:25.133Z,16.40
2022-08-22T00:13:13.740Z,16.30
2022-08-22T00:16:14.409Z,16.30
2022-08-22T00:18:57.863Z,16.30
2022-08-22T00:21:36.726Z,16.30
2022-08-22T00:24:07.889Z,16.20
2022-08-22T00:26:44.744Z,16.10
2022-08-22T00:29:43.554Z,16.10
2022-08-22T00:32:18.832Z,16.10
2022-08-22T00:35:06.138Z,16.10
2022-08-22T00:37:39.675Z,16.10
2022-08-22T00:40:21.922Z,16.10
2022-08-22T00:43:26.540Z,16.00
2022-08-22T00:46:06.620Z,16.00
2022-08-22T00:48:33.528Z,15.90
2022-08-22T00:51:18.658Z,16.00
2022-08-22T00:54:18.108Z,15.90
2022-08-22T00:57:13.963Z,15.90
2022-08-22T00:59:59.543Z,15.90
2022-08-22T01:02:32.042Z,15.90
2022-08-22T01:05:22.398Z,15.90
2022-08-22T01:08:02.905Z,15.90
2022-08-22T01:10:54.913Z,15.90
2022-08-22T01:13:31.837Z,15.90
2022-08-22T01:16:14.629Z,15.80
2022-08-22T01:19:29.493Z,15.80
2022-08-22T01:22:34.124Z,15.80
2022-08-22T01:25:22.630Z,15.80
2022-08-22T01:27:57.640Z,15.70
2022-08-22T01:30:29.337Z,15.70
2022-08-22T01:33:23.109Z,15.70
2022-08-22T01:36:11.512Z,15.70
2022-08-22T01:39:03.681Z,15.70
2022-08-22T01:41:55.117Z,15.70
2022-08-22T01:44:43.734Z,15.60
2022-08-22T01:47:26.641Z,15.60
2022-08-22T01:49:56.753Z,15.60
2022-08-22T01:52:33.115Z,15.60
2022-08-22T01:55:07.593Z,15.60
2022-08-22T01:57:57.703Z,15.60
2022-08-22T02:00:35.112Z,15.60
2022-08-22T02:03:29.281Z,15.60
2022-08-22T02:05:59.826Z,15.60
2022-08-22T02:08:38.355Z,15.60
2022-08-22T02:11:13.883Z,15.60
2022-08-22T02:13:46.466Z,15.60
2022-08-22T02:16:18.492Z,15.50
2022-08-22T02:19:04.572Z,15.50
2022-08-22T02:21:53.535Z,15.50
2022-08-22T02:24:33.503Z,15.50
2022-08-22T02:27:31.562Z,15.50
2022-08-22T02:30:08.751Z,15.50
2022-08-22T02:32:41.350Z,15.50
2022-08-22T02:35:33.431Z,15.40
2022-08-22T02:38:09.564Z,15.50
2022-08-22T02:40:41.089Z,15.40
2022-08-22T02:43:26.128Z,15.40
2022-08-22T02:46:00.472Z,15.40
2022-08-22T02:48:38.858Z,15.30
2022-08-22T02:51:26.427Z,15.30
2022-08-22T02:53:58.035Z,15.30
2022-08-22T02:56:35.712Z,15.30
2022-08-22T02:59:30.728Z,15.30
2022-08-22T03:01:58.450Z,15.30
2022-08-22T03:04:31.159Z,15.20
2022-08-22T03:07:03.855Z,15.20
2022-08-22T03:09:40.167Z,15.20
2022-08-22T03:12:16.514Z,15.10
2022-08-22T03:14:54.728Z,15.10
2022-08-22T03:17:26.808Z,15.10
2022-08-22T03:20:08.028Z,15.10
2022-08-22T03:22:48.765Z,15.10
2022-08-22T03:25:34.079Z,15.10
2022-08-22T03:28:02.601Z,15.00
2022-08-22T03:30:43.345Z,15.00
2022-08-22T03:33:16.879Z,15.00
2022-08-22T03:35:46.903Z,14.90
2022-08-22T03:38:19.410Z,14.90
2022-08-22T03:41:24.159Z,14.90
2022-08-22T03:44:15.307Z,14.90
2022-08-22T03:47:01.191Z,14.90
2022-08-22T03:50:06.860Z,14.90
2022-08-22T03:53:20.010Z,14.90
2022-08-22T03:56:05.596Z,14.80
2022-08-22T03:58:47.632Z,14.80
2022-08-22T04:01:42.509Z,14.80
2022-08-22T04:04:54.235Z,14.70
2022-08-22T04:07:41.007Z,14.70
2022-08-22T04:10:47.491Z,14.60
2022-08-22T04:13:29.230Z,14.60
2022-08-22T04:16:20.777Z,14.60
2022-08-22T04:18:59.836Z,14.50
2022-08-22T04:21:38.868Z,14.40
2022-08-22T04:24:05.761Z,14.40
2022-08-22T04:26:55.958Z,14.40
2022-08-22T04:29:31.751Z,14.30
2022-08-22T04:32:25.283Z,14.30
2022-08-22T04:34:54.654Z,14.30
2022-08-22T04:37:26.365Z,14.20
2022-08-22T04:40:21.931Z,14.20
2022-08-22T04:42:59.320Z,14.10
2022-08-22T04:45:29.833Z,14.10
2022-08-22T04:48:06.211Z,14.10
2022-08-22T04:50:41.195Z,14.00
2022-08-22T04:53:21.401Z,14.00
2022-08-22T04:55:51.684Z,14.00
2022-08-22T04:58:32.420Z,14.00
2022-08-22T05:01:20.467Z,14.00
2022-08-22T05:03:58.925Z,13.90
2022-08-22T05:06:30.252Z,13.90
2022-08-22T05:09:00.804Z,13.90
2022-08-22T05:11:27.751Z,13.90
2022-08-22T05:13:56.976Z,13.90
2022-08-22T05:16:27.870Z,13.90
2022-08-22T05:19:02.927Z,13.90
2022-08-22T05:21:32.807Z,13.90
2022-08-22T05:24:28.028Z,13.90
2022-08-22T05:26:55.989Z,13.90
2022-08-22T05:29:26.759Z,13.90
2022-08-22T05:32:02.157Z,14.00
2022-08-22T05:34:31.824Z,14.00
2022-08-22T05:37:04.951Z,14.00
2022-08-22T05:39:38.030Z,14.00
2022-08-22T05:42:05.340Z,14.00
2022-08-22T05:44:34.458Z,14.00
2022-08-22T05:47:02.067Z,14.10
2022-08-22T05:49:40.727Z,14.10
2022-08-22T05:52:28.611Z,14.10
2022-08-22T05:55:13.072Z,14.20
2022-08-22T05:57:41.981Z,14.20
2022-08-22T06:00:11.868Z,14.20
2022-08-22T06:02:53.638Z,14.30
2022-08-22T06:05:26.226Z,14.30
2022-08-22T06:08:03.776Z,14.30
2022-08-22T06:10:48.249Z,14.40
2022-08-22T06:13:32.581Z,14.40
2022-08-22T06:16:10.272Z,14.50
2022-08-22T06:18:38.750Z,14.50
2022-08-22T06:21:09.842Z,14.60
2022-08-22T06:23:48.277Z,14.60
2022-08-22T06:26:20.901Z,14.70
2022-08-22T06:28:55.413Z,14.80
2022-08-22T06:31:30.172Z,14.80
2022-08-22T06:34:24.802Z,14.90
2022-08-22T06:36:51.851Z,15.00
2022-08-22T06:39:30.137Z,15.10
2022-08-22T06:42:11.161Z,15.10
2022-08-22T06:44:59.878Z,15.20
2022-08-22T06:47:31.170Z,15.30
2022-08-22T06:50:01.981Z,15.30
2022-08-22T06:52:29.732Z,15.50
2022-08-22T06:55:02.722Z,15.60
2022-08-22T06:57:35.926Z,15.70
2022-08-22T07:00:06.980Z,15.80
2022-08-22T07:02:35.637Z,15.90
2022-08-22T07:05:02.618Z,15.90
2022-08-22T07:07:29.586Z,16.00
2022-08-22T07:09:57.458Z,16.00
2022-08-22T07:12:31.570Z,16.10
2022-08-22T07:15:10.779Z,16.20
2022-08-22T07:17:40.586Z,16.30
2022-08-22T07:20:24.200Z,16.40
2022-08-22T07:23:04.684Z,16.50
2022-08-22T07:25:31.859Z,16.60
2022-08-22T07:28:07.500Z,16.80
2022-08-22T07:30:46.882Z,16.90
2022-08-22T07:33:27.303Z,17.00
2022-08-22T07:36:01.576Z,17.20
2022-08-22T07:38:42.892Z,17.30
2022-08-22T07:41:21.561Z,17.40
2022-08-22T07:44:07.099Z,17.50
2022-08-22T07:47:26.579Z,17.60
2022-08-22T07:49:59.324Z,17.70
2022-08-22T07:52:26.252Z,17.90
2022-08-22T07:55:17.674Z,18.00
2022-08-22T07:57:47.454Z,18.10
2022-08-22T08:00:18.354Z,18.10
2022-08-22T08:02:47.799Z,18.20
2022-08-22T08:05:15.058Z,18.30
2022-08-22T08:07:44.050Z,18.40
2022-08-22T08:10:19.959Z,18.50
2022-08-22T08:13:01.989Z,18.60
2022-08-22T08:15:31.044Z,18.70
2022-08-22T08:18:00.529Z,18.70
2022-08-22T08:20:27.728Z,18.80
2022-08-22T08:22:55.931Z,18.90
2022-08-22T08:25:26.646Z,19.00
2022-08-22T08:28:11.875Z,19.10
2022-08-22T08:30:46.646Z,19.20
2022-08-22T08:33:25.547Z,19.30
2022-08-22T08:36:05.387Z,19.40
2022-08-22T08:38:45.430Z,19.50
2022-08-22T08:41:30.423Z,19.50
2022-08-22T08:44:15.945Z,19.60
2022-08-22T08:47:01.635Z,19.70
2022-08-22T08:49:42.915Z,19.80
2022-08-22T08:52:28.075Z,19.90
2022-08-22T08:55:21.751Z,19.90
2022-08-22T08:58:29.003Z,20.10
2022-08-22T09:01:20.526Z,20.10
2022-08-22T09:04:28.196Z,20.20
2022-08-22T09:07:20.075Z,20.40
2022-08-22T09:10:08.977Z,20.70
2022-08-22T09:13:12.344Z,20.90
2022-08-22T09:16:11.827Z,21.00
2022-08-22T09:19:05.029Z,20.90
2022-08-22T09:25:06.301Z,20.70
2022-08-22T09:27:37.635Z,20.80
2022-08-22T09:30:17.191Z,20.80
2022-08-22T09:32:54.559Z,21.00
2022-08-22T09:35:49.205Z,21.10
2022-08-22T09:38:25.680Z,21.30
2022-08-22T09:41:00.195Z,21.50
2022-08-22T09:43:34.692Z,21.70
2022-08-22T09:46:15.721Z,22.00
2022-08-22T09:49:00.802Z,22.30
2022-08-22T09:51:48.215Z,22.80
2022-08-22T09:54:41.525Z,23.20
2022-08-22T09:57:16.367Z,23.60
2022-08-22T10:00:02.103Z,23.70
2022-08-22T10:02:50.558Z,23.70
2022-08-22T10:05:40.636Z,23.70
2022-08-22T10:08:14.207Z,23.70
2022-08-22T10:11:06.528Z,23.70
2022-08-22T10:13:56.588Z,23.70
2022-08-22T10:17:02.350Z,23.60
2022-08-22T10:19:47.840Z,23.60
2022-08-22T10:22:18.845Z,23.60
2022-08-22T10:25:09.508Z,23.60
2022-08-22T10:27:40.259Z,23.60
2022-08-22T10:30:10.274Z,23.60
2022-08-22T10:32:43.699Z,23.90
2022-08-22T10:35:34.341Z,24.20
2022-08-22T10:38:10.936Z,24.40
2022-08-22T10:40:53.511Z,24.40
2022-08-22T10:43:43.149Z,24.40
2022-08-22T10:46:15.684Z,24.50
2022-08-22T10:48:53.383Z,24.40
2022-08-22T10:51:31.417Z,24.30
2022-08-22T10:54:04.496Z,24.00
2022-08-22T10:56:46.392Z,23.90
2022-08-22T10:59:25.655Z,23.90
2022-08-22T11:02:31.749Z,24.00
2022-08-22T11:05:04.873Z,24.20
2022-08-22T11:07:31.825Z,24.40
2022-08-22T11:10:05.122Z,24.50
2022-08-22T11:12:47.218Z,24.60
2022-08-22T11:15:28.472Z,24.80
2022-08-22T11:18:04.628Z,24.80
2022-08-22T11:20:59.333Z,24.80
2022-08-22T11:23:48.306Z,24.60
2022-08-22T11:26:47.377Z,24.50
2022-08-22T11:29:59.051Z,24.40
2022-08-22T11:32:34.572Z,24.70
2022-08-22T11:35:19.859Z,24.90
2022-08-22T11:37:57.309Z,24.90
2022-08-22T11:40:54.146Z,24.80
2022-08-22T11:43:49.312Z,24.50
2022-08-22T11:46:24.179Z,24.30
2022-08-22T11:49:20.838Z,24.00
2022-08-22T11:52:19.708Z,23.80
2022-08-22T11:54:58.825Z,23.60
2022-08-22T11:57:49.802Z,23.60
2022-08-22T12:00:44.107Z,23.50
2022-08-22T12:03:23.606Z,23.50
2022-08-22T12:06:22.123Z,23.60
2022-08-22T12:08:51.762Z,23.70
2022-08-22T12:11:25.953Z,23.80
2022-08-22T12:14:06.405Z,23.70
2022-08-22T12:17:11.422Z,23.70
2022-08-22T12:20:16.785Z,23.60
2022-08-22T12:23:37.994Z,23.50
2022-08-22T12:26:28.394Z,23.40
2022-08-22T12:29:15.623Z,23.40
2022-08-22T12:32:27.639Z,23.30
2022-08-22T12:35:13.831Z,23.20
2022-08-22T12:37:54.632Z,23.10
2022-08-22T12:40:34.703Z,23.00
2022-08-22T12:43:39.943Z,23.00
2022-08-22T12:46:13.566Z,23.20
2022-08-22T12:48:43.623Z,23.60
2022-08-22T12:52:04.307Z,24.10
2022-08-22T12:54:53.752Z,24.50
2022-08-22T12:57:32.364Z,25.00
2022-08-22T13:00:22.933Z,26.00
2022-08-22T13:02:52.968Z,27.30
2022-08-22T13:05:24.917Z,28.00
2022-08-22T13:08:04.644Z,28.20
2022-08-22T13:10:48.336Z,28.20
2022-08-22T13:13:38.824Z,27.90
2022-08-22T13:16:15.549Z,27.60
2022-08-22T13:18:55.680Z,27.10
2022-08-22T13:21:26.693Z,26.50
2022-08-22T13:24:03.527Z,26.00
2022-08-22T13:26:35.314Z,25.40
2022-08-22T13:29:25.648Z,25.00
2022-08-22T13:32:01.980Z,24.70
2022-08-22T13:34:46.996Z,24.40
2022-08-22T13:37:16.935Z,24.10
2022-08-22T13:39:45.989Z,23.90
2022-08-22T13:42:30.044Z,23.80
2022-08-22T13:44:59.797Z,23.60
2022-08-22T13:47:31.542Z,23.50
2022-08-22T13:50:13.994Z,23.50
2022-08-22T13:53:07.209Z,23.50
2022-08-22T13:55:38.992Z,23.40
2022-08-22T13:58:31.966Z,23.40
2022-08-22T14:01:25.258Z,23.40
2022-08-22T14:04:28.361Z,23.30
2022-08-22T14:07:03.780Z,23.20
2022-08-22T14:09:40.302Z,23.10
2022-08-22T14:12:08.263Z,23.10
2022-08-22T14:14:49.134Z,23.10
2022-08-22T14:17:21.068Z,23.20
2022-08-22T14:19:59.318Z,23.30
2022-08-22T14:22:35.338Z,23.40
2022-08-22T14:25:08.773Z,23.50
2022-08-22T14:27:39.748Z,23.50
2022-08-22T14:30:21.296Z,23.50
2022-08-22T14:33:27.575Z,23.40
2022-08-22T14:36:02.053Z,23.30
2022-08-22T14:38:30.493Z,23.20
2022-08-22T14:41:21.219Z,23.20
2022-08-22T14:44:00.818Z,23.30
2022-08-22T14:46:53.362Z,23.70
2022-08-22T14:49:28.668Z,24.10
2022-08-22T14:52:06.178Z,24.60
2022-08-22T14:54:33.743Z,25.60
2022-08-22T14:57:01.869Z,26.30
2022-08-22T14:59:44.233Z,26.80
2022-08-22T15:02:26.580Z,27.00
2022-08-22T15:04:54.951Z,26.90
2022-08-22T15:07:23.582Z,26.70
2022-08-22T15:09:56.735Z,26.40
2022-08-22T15:12:28.788Z,26.00
2022-08-22T15:15:03.976Z,25.70
2022-08-22T15:17:45.474Z,25.30
2022-08-22T15:20:34.163Z,25.00
2022-08-22T15:23:10.109Z,24.80
2022-08-22T15:25:40.997Z,24.50
2022-08-22T15:28:14.102Z,24.40
2022-08-22T15:30:48.928Z,24.20
2022-08-22T15:33:32.306Z,24.00
2022-08-22T15:36:24.213Z,23.80
2022-08-22T15:39:33.923Z,23.80
2022-08-22T15:42:01.348Z,23.70
2022-08-22T15:44:35.943Z,23.80
2022-08-22T15:47:05.379Z,23.80
2022-08-22T15:49:50.342Z,23.90
2022-08-22T15:52:25.953Z,23.90
2022-08-22T15:54:57.141Z,24.10
2022-08-22T15:57:39.012Z,24.20
2022-08-22T16:00:12.060Z,24.50
2022-08-22T16:02:59.507Z,24.90
2022-08-22T16:05:37.570Z,25.10
2022-08-22T16:08:09.630Z,25.40
2022-08-22T16:10:40.635Z,25.60
2022-08-22T16:13:09.337Z,25.70
2022-08-22T16:15:51.301Z,25.60
2022-08-22T16:18:33.661Z,25.50
2022-08-22T16:21:08.384Z,25.40
2022-08-22T16:23:53.870Z,25.30
2022-08-22T16:26:44.144Z,25.10
2022-08-22T16:29:15.021Z,24.90
2022-08-22T16:31:44.961Z,24.80
2022-08-22T16:34:18.063Z,24.60
2022-08-22T16:37:03.412Z,24.60
2022-08-22T16:39:52.428Z,24.50
2022-08-22T16:42:22.398Z,24.30
2022-08-22T16:45:11.202Z,24.20
2022-08-22T16:47:58.164Z,24.00
2022-08-22T16:50:31.674Z,23.90
2022-08-22T16:53:12.061Z,23.70
2022-08-22T16:56:05.422Z,23.60
2022-08-22T16:59:00.866Z,23.40
2022-08-22T17:02:00.051Z,23.40
2022-08-22T17:04:40.260Z,23.20
2022-08-22T17:07:14.426Z,23.10
2022-08-22T17:10:16.903Z,23.10
2022-08-22T17:13:19.331Z,23.00
2022-08-22T17:15:57.677Z,22.90
2022-08-22T17:19:09.288Z,22.80
2022-08-22T17:21:53.652Z,22.70
2022-08-22T17:24:33.658Z,22.70
2022-08-22T17:27:12.390Z,22.60
2022-08-22T17:29:55.276Z,22.60
2022-08-22T17:32:32.555Z,22.50
2022-08-22T17:35:27.444Z,22.50
2022-08-22T17:38:03.193Z,22.50
2022-08-22T17:40:50.460Z,22.40
2022-08-22T17:43:32.762Z,22.40
2022-08-22T17:46:15.638Z,22.30
2022-08-22T17:48:46.038Z,22.30
2022-08-22T17:51:18.601Z,22.20
2022-08-22T17:53:47.577Z,22.10
2022-08-22T17:56:38.159Z,22.10
2022-08-22T17:59:10.187Z,22.10
2022-08-22T18:01:50.961Z,22.00
2022-08-22T18:04:43.306Z,22.00
2022-08-22T18:07:15.831Z,22.00
2022-08-22T18:10:04.747Z,22.00
2022-08-22T18:12:34.527Z,21.90
2022-08-22T18:15:38.725Z,21.90
2022-08-22T18:18:08.227Z,21.80
2022-08-22T18:20:44.119Z,21.80
2022-08-22T18:23:35.796Z,21.80
2022-08-22T18:26:09.144Z,21.70
2022-08-22T18:29:09.113Z,21.60
2022-08-22T18:31:57.678Z,21.60
2022-08-22T18:34:41.632Z,21.60
2022-08-22T18:37:30.797Z,21.50
2022-08-22T18:40:04.547Z,21.50
2022-08-22T18:42:31.456Z,21.50
2022-08-22T18:45:02.220Z,21.40
2022-08-22T18:47:33.522Z,21.30
2022-08-22T18:50:02.622Z,21.30
2022-08-22T18:52:39.086Z,21.30
2022-08-22T18:55:24.855Z,21.20
2022-08-22T18:57:57.902Z,21.20
2022-08-22T19:00:53.019Z,21.10
2022-08-22T19:03:26.118Z,21.00
2022-08-22T19:06:08.425Z,21.00
2022-08-22T19:08:53.906Z,21.00
2022-08-22T19:11:45.606Z,20.90
2022-08-22T19:14:25.060Z,20.90
2022-08-22T19:17:07.148Z,20.80
2022-08-22T19:20:38.886Z,20.70
2022-08-22T19:23:33.833Z,20.70
2022-08-22T19:26:30.352Z,20.60
2022-08-22T19:29:02.889Z,20.60
2022-08-22T19:31:35.933Z,20.50
2022-08-22T19:34:25.767Z,20.50
2022-08-22T19:37:11.568Z,20.50
2022-08-22T19:40:00.144Z,20.40
2022-08-22T19:42:30.366Z,20.40
2022-08-22T19:45:03.349Z,20.40
2022-08-22T19:47:39.460Z,20.40
2022-08-22T19:50:18.729Z,20.30
2022-08-22T19:53:04.021Z,20.30
2022-08-22T19:55:49.597Z,20.30
2022-08-22T19:58:35.266Z,20.20
2022-08-22T20:01:39.943Z,20.20
2022-08-22T20:04:46.669Z,20.20
2022-08-22T20:07:16.358Z,20.20
2022-08-22T20:09:56.227Z,20.10
2022-08-22T20:12:31.893Z,20.10
2022-08-22T20:15:04.613Z,20.10
2022-08-22T20:17:31.567Z,20.00
2022-08-22T20:20:17.246Z,20.00
2022-08-22T20:22:46.575Z,20.00
2022-08-22T20:25:41.693Z,20.00
2022-08-22T20:28:13.985Z,20.00
2022-08-22T20:30:43.804Z,19.90
2022-08-22T20:33:14.686Z,19.90
2022-08-22T20:35:52.554Z,19.90
2022-08-22T20:38:24.824Z,19.90
2022-08-22T20:41:11.662Z,19.90
2022-08-22T20:43:48.581Z,19.90
2022-08-22T20:46:35.176Z,19.90
2022-08-22T20:49:05.109Z,19.90
2022-08-22T20:51:32.817Z,19.90
2022-08-22T20:54:15.939Z,19.90
2022-08-22T20:56:54.632Z,19.80
2022-08-22T20:59:36.025Z,19.80
2022-08-22T21:02:09.692Z,19.80
2022-08-22T21:04:42.790Z,19.80
2022-08-22T21:07:10.368Z,19.80
2022-08-22T21:09:55.702Z,19.80
2022-08-22T21:12:24.078Z,19.70
2022-08-22T21:14:51.019Z,19.70
2022-08-22T21:17:34.404Z,19.80
2022-08-22T21:20:21.417Z,19.70
2022-08-22T21:22:48.463Z,19.80
2022-08-22T21:25:15.352Z,19.70
2022-08-22T21:27:42.377Z,19.70
2022-08-22T21:30:10.041Z,19.70
2022-08-22T21:32:46.352Z,19.70
2022-08-22T21:35:24.274Z,19.70
2022-08-22T21:37:51.336Z,19.70
2022-08-22T21:40:40.498Z,19.70
2022-08-22T21:43:13.651Z,19.70
2022-08-22T21:45:41.452Z,19.70
2022-08-22T21:48:33.384Z,19.70
2022-08-22T21:51:28.474Z,19.70
2022-08-22T21:54:29.641Z,19.70
2022-08-22T21:56:58.883Z,19.60
2022-08-22T21:59:50.660Z,19.60
2022-08-22T22:02:37.583Z,19.60
2022-08-22T22:05:09.388Z,19.60
2022-08-22T22:07:38.028Z,19.50
2022-08-22T22:10:07.230Z,19.50
2022-08-22T22:12:34.111Z,19.50
2022-08-22T22:15:00.993Z,19.50
2022-08-22T22:17:28.040Z,19.50
2022-08-22T22:19:55.078Z,19.50
2022-08-22T22:22:22.135Z,19.50
2022-08-22T22:24:49.011Z,19.50
2022-08-22T22:27:17.163Z,19.50
2022-08-22T22:29:44.260Z,19.50
2022-08-22T22:32:11.154Z,19.50
2022-08-22T22:34:39.154Z,19.60
2022-08-22T22:37:08.227Z,19.50
2022-08-22T22:39:36.115Z,19.50
2022-08-22T22:42:03.772Z,19.50
2022-08-22T22:44:31.055Z,19.50
2022-08-22T22:47:02.300Z,19.50
2022-08-22T22:49:30.247Z,19.50
2022-08-22T22:51:57.825Z,19.50
2022-08-22T22:54:27.219Z,19.50
2022-08-22T22:56:54.760Z,19.50
2022-08-22T22:59:24.569Z,19.60
2022-08-22T23:02:09.332Z,19.60
2022-08-22T23:04:38.981Z,19.60
2022-08-22T23:07:06.466Z,19.60
2022-08-22T23:09:38.610Z,19.60
2022-08-22T23:12:13.419Z,19.60
2022-08-22T23:14:40.567Z,19.50
2022-08-22T23:17:07.774Z,19.50
2022-08-22T23:19:34.863Z,19.50
2022-08-22T23:22:02.247Z,19.50
2022-08-22T23:24:32.469Z,19.50
2022-08-22T23:26:59.491Z,19.40
2022-08-22T23:29:26.405Z,19.50
2022-08-22T23:31:57.929Z,19.50
2022-08-22T23:34:29.504Z,19.40
2022-08-22T23:36:57.502Z,19.50
2022-08-22T23:39:25.484Z,19.50
2022-08-22T23:41:52.553Z,19.50
2022-08-22T23:44:21.662Z,19.50
2022-08-22T23:46:48.642Z,19.50
2022-08-22T23:49:15.692Z,19.50
2022-08-22T23:51:42.791Z,19.50
2022-08-22T23:54:09.782Z,19.50
2022-08-22T23:56:45.784Z,19.50
2022-08-22T23:59:15.624Z,19.60
